Time;durP1;ratioP1;P1;durP2;ratioP2;P2;SDS_P1;SDS_P2;PMS_P1;PMS_P2;Temp;Humidity;BMP_temperature;BMP_pressure;BME280_temperature;BME280_humidity;BME280_pressure;Samples;Min_cycle;Max_cycle;Signal;HPM_P1;HPM_P2
2021/01/12 00:04:56;;;;;;;;;;;5.80;99.90;;;;;;13003450;22;20023;-94
2021/01/12 00:09:57;;;;;;;28.05;24.10;;;5.90;99.90;;;;;;12976959;22;19922;-94
2021/01/12 00:14:59;;;;;;;;;;;6.00;99.90;;;;;;13004107;22;20053;-94
2021/01/12 00:20:03;;;;;;;33.53;23.92;;;6.00;99.90;;;;;;12988627;22;20247;-94
2021/01/12 00:25:08;;;;;;;29.90;23.15;;;5.90;99.90;;;;;;13009718;22;20019;-94
2021/01/12 00:30:26;;;;;;;32.40;22.00;;;6.00;99.90;;;;;;13019206;22;20440;-94
2021/01/12 00:35:28;;;;;;;24.70;18.98;;;6.00;99.90;;;;;;12987423;22;20019;-94
2021/01/12 00:40:29;;;;;;;24.75;21.85;;;6.00;99.90;;;;;;13009128;22;20023;-94
2021/01/12 00:45:31;;;;;;;18.88;16.88;;;6.00;99.90;;;;;;12982254;22;20105;-93
2021/01/12 00:50:32;;;;;;;20.85;17.23;;;6.00;99.90;;;;;;12981111;22;20321;-93
2021/01/12 00:55:34;;;;;;;21.45;15.38;;;6.00;99.90;;;;;;12980896;22;20574;-93
2021/01/12 01:00:35;;;;;;;22.17;18.48;;;6.10;99.90;;;;;;12980595;22;20106;-93
2021/01/12 01:05:37;;;;;;;19.98;15.02;;;6.10;99.90;;;;;;12981630;22;20460;-94
2021/01/12 01:10:40;;;;;;;15.23;12.82;;;6.00;99.90;;;;;;12981094;22;20023;-94
2021/01/12 01:15:41;;;;;;;14.48;12.63;;;6.00;99.90;;;;;;12980658;22;20029;-94
2021/01/12 01:20:43;;;;;;;17.30;15.13;;;6.00;99.90;;;;;;12980789;22;20031;-94
2021/01/12 01:25:44;;;;;;;13.25;11.85;;;6.00;99.90;;;;;;13005240;22;20030;-93
2021/01/12 01:30:49;;;;;;;12.57;11.18;;;6.10;99.90;;;;;;12979977;22;20022;-93
2021/01/12 01:35:51;;;;;;;14.43;12.25;;;6.10;99.90;;;;;;13005893;22;20020;-94
2021/01/12 01:40:59;;;;;;;15.32;13.27;;;6.10;99.90;;;;;;13005247;22;20030;-94
2021/01/12 01:46:01;;;;;;;14.68;11.82;;;6.10;99.90;;;;;;13006923;22;20027;-93
2021/01/12 01:51:04;;;;;;;;;;;6.10;99.90;;;;;;13006586;22;20023;-94
2021/01/12 01:56:07;;;;;;;17.15;12.20;;;6.20;99.90;;;;;;13005119;22;19915;-94
2021/01/12 02:01:10;;;;;;;17.08;13.00;;;6.20;99.90;;;;;;12980584;22;20038;-94
2021/01/12 02:06:32;;;;;;;13.13;10.32;;;6.10;99.90;;;;;;13005070;22;20042;-94
2021/01/12 02:11:53;;;;;;;15.70;11.38;;;6.10;99.90;;;;;;13005602;22;20440;-93
2021/01/12 02:16:56;;;;;;;15.65;12.20;;;6.20;99.90;;;;;;13005227;22;20390;-94
2021/01/12 02:22:07;;;;;;;16.25;10.55;;;6.10;99.90;;;;;;13019917;22;20341;-94
2021/01/12 02:27:09;;;;;;;15.20;11.63;;;6.20;99.90;;;;;;13031429;22;20030;-94
2021/01/12 02:32:12;;;;;;;17.75;11.15;;;6.20;99.90;;;;;;12956409;22;20015;-94
2021/01/12 02:37:16;;;;;;;14.85;12.02;;;6.20;99.90;;;;;;13006114;22;20070;-93
2021/01/12 02:42:18;;;;;;;13.23;10.90;;;6.30;99.90;;;;;;13004227;22;20051;-93
2021/01/12 02:47:19;;;;;;;10.52;9.45;;;6.30;99.90;;;;;;13004011;22;20400;-93
2021/01/12 02:52:21;;;;;;;;;;;6.30;99.90;;;;;;12978930;22;20029;-94
2021/01/12 02:57:22;;;;;;;10.63;9.30;;;6.30;99.90;;;;;;13028991;22;19925;-93
2021/01/12 03:02:24;;;;;;;11.98;10.68;;;6.40;99.90;;;;;;12979185;22;20021;-93
2021/01/12 03:07:28;;;;;;;14.38;10.65;;;6.40;99.90;;;;;;12978941;22;20035;-94
2021/01/12 03:12:29;;;;;;;11.80;10.50;;;6.40;99.90;;;;;;12979739;22;20022;-94
2021/01/12 03:17:31;;;;;;;11.77;10.25;;;6.50;99.90;;;;;;12978545;22;20361;-93
2021/01/12 03:22:32;;;;;;;;;;;6.60;99.90;;;;;;12980415;22;20069;-94
2021/01/12 03:27:35;;;;;;;18.57;12.93;;;6.50;99.90;;;;;;13003167;22;20315;-94
2021/01/12 03:32:36;;;;;;;15.70;11.85;;;6.50;99.90;;;;;;13004006;22;20016;-94
2021/01/12 03:37:38;;;;;;;19.25;12.95;;;6.50;99.90;;;;;;13003411;22;20026;-95
2021/01/12 03:42:40;;;;;;;13.85;11.23;;;6.60;99.90;;;;;;12977912;22;20337;-93
2021/01/12 03:47:41;;;;;;;15.68;13.13;;;6.60;99.90;;;;;;12977667;22;20456;-93
2021/01/12 03:52:43;;;;;;;16.25;12.52;;;6.70;99.90;;;;;;13003007;22;20015;-94
2021/01/12 03:57:44;;;;;;;20.23;13.55;;;6.70;99.90;;;;;;12977914;22;20019;-94
2021/01/12 04:02:46;;;;;;;15.52;12.25;;;6.70;99.90;;;;;;12976907;22;20026;-93
2021/01/12 04:07:48;;;;;;;12.68;10.90;;;6.70;99.90;;;;;;13003070;22;20023;-94
2021/01/12 04:12:50;;;;;;;14.45;11.02;;;6.80;99.90;;;;;;13002919;22;20016;-94
2021/01/12 04:17:52;;;;;;;;;;;6.90;99.90;;;;;;12977699;22;20085;-94
2021/01/12 04:22:53;;;;;;;11.27;9.87;;;6.90;99.90;;;;;;12978397;22;19915;-95
2021/01/12 04:27:55;;;;;;;12.48;10.38;;;6.90;99.90;;;;;;12984290;22;20272;-94
2021/01/12 04:32:56;;;;;;;;;;;7.00;99.90;;;;;;12987776;22;20065;-94
2021/01/12 04:37:58;;;;;;;14.48;9.60;;;6.90;99.90;;;;;;12979739;22;19994;-94
2021/01/12 04:42:59;;;;;;;;;;;6.90;99.90;;;;;;12977347;22;20039;-95
2021/01/12 09:00:34;;;;;;;7.20;2.92;;;6.80;99.90;;;;;;13059716;22;20019;-94
2021/01/12 09:05:41;;;;;;;4.47;2.97;;;6.80;99.90;;;;;;13031921;22;20393;-93
2021/01/12 09:10:43;;;;;;;6.78;3.40;;;6.70;99.90;;;;;;13005623;22;20463;-94
2021/01/12 09:15:51;;;;;;;4.82;4.13;;;6.70;99.90;;;;;;13034132;22;20019;-96
2021/01/12 09:21:00;;;;;;;3.53;3.22;;;6.60;99.90;;;;;;13007829;22;20023;-94
2021/01/12 09:26:03;;;;;;;7.28;3.83;;;6.50;99.90;;;;;;13006378;22;20073;-94
2021/01/12 09:31:12;;;;;;;8.10;4.45;;;6.40;99.90;;;;;;12980902;22;20344;-94
2021/01/12 09:36:16;;;;;;;8.68;4.00;;;6.50;99.90;;;;;;13006949;22;20336;-93
2021/01/12 09:41:28;;;;;;;6.22;2.63;;;6.50;99.90;;;;;;13005626;22;20080;-94
2021/01/12 09:46:29;;;;;;;4.35;2.10;;;6.50;99.90;;;;;;12980847;22;20030;-94
2021/01/12 09:51:31;;;;;;;;;;;6.30;99.90;;;;;;12981462;22;20019;-93
2021/01/12 09:56:36;;;;;;;2.70;2.15;;;6.20;99.90;;;;;;13030258;22;19934;-93
2021/01/12 10:01:37;;;;;;;6.35;1.80;;;6.20;99.90;;;;;;12979445;22;20023;-93
2021/01/12 10:06:39;;;;;;;2.13;1.50;;;6.10;99.90;;;;;;12981263;22;20020;-93
2021/01/12 10:11:41;;;;;;;;;;;6.10;99.90;;;;;;12979870;22;20102;-94
2021/01/12 10:16:42;;;;;;;6.85;1.45;;;6.20;99.90;;;;;;13011152;22;19914;-94
2021/01/12 10:21:44;;;;;;;;;;;6.40;99.90;;;;;;12989927;22;20019;-94
2021/01/12 10:26:51;;;;;;;3.10;1.65;;;6.30;99.90;;;;;;12980730;22;19934;-94
2021/01/12 10:31:53;;;;;;;5.40;2.03;;;6.20;99.90;;;;;;12981329;22;20046;-94
2021/01/12 10:36:54;;;;;;;11.93;4.68;;;6.30;99.90;;;;;;13004433;22;20027;-94
2021/01/12 10:41:57;;;;;;;;;;;6.30;99.90;;;;;;12979568;22;20023;-94
2021/01/12 10:46:59;;;;;;;5.47;3.72;;;6.20;99.90;;;;;;13004694;22;19915;-94
2021/01/12 10:52:05;;;;;;;6.32;2.80;;;6.20;99.90;;;;;;13029592;22;20475;-95
2021/01/12 10:57:08;;;;;;;9.75;2.75;;;6.30;99.90;;;;;;13004657;22;20019;-93
2021/01/12 11:02:11;;;;;;;4.03;1.40;;;6.40;99.90;;;;;;13003099;22;20035;-92
2021/01/12 11:07:14;;;;;;;4.10;1.00;;;6.00;99.90;;;;;;12891600;22;20444;-93
2021/01/12 11:12:17;;;;;;;3.35;1.00;;;5.90;99.90;;;;;;12916145;22;20419;-93
2021/01/12 11:17:19;;;;;;;3.45;1.00;;;5.80;99.90;;;;;;12915499;22;20020;-92
2021/01/12 11:22:27;;;;;;;6.90;1.48;;;5.80;99.90;;;;;;12915450;22;20475;-94
2021/01/12 11:27:30;;;;;;;2.55;0.85;;;6.00;99.90;;;;;;12941755;22;20024;-91
2021/01/12 11:32:33;;;;;;;5.00;1.15;;;5.90;99.90;;;;;;12938819;22;20036;-92
2021/01/12 11:37:34;;;;;;;4.18;1.25;;;5.90;99.90;;;;;;12939645;22;20102;-92
2021/01/12 11:42:36;;;;;;;;;;;5.80;99.90;;;;;;12914408;22;20344;-92
2021/01/12 11:47:38;;;;;;;3.65;0.77;;;5.80;99.90;;;;;;12914151;22;19937;-95
2021/01/12 11:52:39;;;;;;;7.18;1.10;;;5.70;99.90;;;;;;12889222;22;20388;-93
2021/01/12 11:57:41;;;;;;;6.18;1.00;;;5.60;99.90;;;;;;12913691;22;20377;-93
2021/01/12 12:02:42;;;;;;;10.38;1.05;;;5.40;99.90;;;;;;12914284;22;20031;-92
2021/01/12 12:07:44;;;;;;;;;;;5.40;99.90;;;;;;12938969;22;20039;-91
2021/01/12 12:12:45;;;;;;;9.52;1.30;;;5.60;99.90;;;;;;12913801;22;19915;-92
2021/01/12 12:17:50;;;;;;;6.70;1.65;;;5.60;99.90;;;;;;12889271;22;20039;-93
2021/01/12 12:22:51;;;;;;;11.63;1.20;;;5.60;99.90;;;;;;12936574;22;20028;-93
2021/01/12 12:27:53;;;;;;;3.55;1.08;;;5.50;99.90;;;;;;12912404;22;20098;-92
2021/01/12 12:32:54;;;;;;;4.75;1.48;;;5.50;99.90;;;;;;12889288;22;20039;-93
2021/01/12 12:37:56;;;;;;;13.35;1.33;;;5.40;99.90;;;;;;12913674;22;20015;-92
2021/01/12 12:42:58;;;;;;;3.50;1.35;;;5.30;99.90;;;;;;12914597;22;20030;-92
2021/01/12 12:48:03;;;;;;;6.03;1.80;;;5.20;99.90;;;;;;12889543;22;20024;-93
2021/01/12 12:53:04;;;;;;;6.90;1.13;;;5.00;99.90;;;;;;12939293;22;20470;-92
2021/01/12 12:58:06;;;;;;;6.10;1.38;;;5.00;99.90;;;;;;12888918;22;20091;-93
2021/01/12 13:03:09;;;;;;;9.00;1.80;;;4.90;99.90;;;;;;12913836;22;20024;-93
2021/01/12 13:08:11;;;;;;;5.35;1.23;;;4.80;99.90;;;;;;12914584;22;20106;-92
2021/01/12 13:13:12;;;;;;;;;;;4.80;99.90;;;;;;12889903;22;20051;-93
2021/01/12 13:18:20;;;;;;;11.02;2.28;;;4.70;99.90;;;;;;12913351;22;19935;-93
2021/01/12 13:23:25;;;;;;;5.22;1.40;;;4.90;99.90;;;;;;12964966;22;20082;-92
2021/01/12 13:28:27;;;;;;;4.93;1.33;;;5.10;99.90;;;;;;12938387;22;20076;-93
2021/01/12 13:33:28;;;;;;;5.70;1.10;;;5.00;99.90;;;;;;12888512;22;20020;-93
2021/01/12 13:38:30;;;;;;;8.75;1.52;;;5.00;99.90;;;;;;12941058;22;20015;-93
2021/01/12 13:43:32;;;;;;;6.43;2.10;;;4.90;99.90;;;;;;12917938;22;20027;-93
2021/01/12 13:48:34;;;;;;;7.10;2.30;;;4.90;99.90;;;;;;12892283;22;20031;-93
2021/01/12 13:53:36;;;;;;;8.65;1.48;;;4.80;99.90;;;;;;12941546;22;20387;-92
2021/01/12 13:58:38;;;;;;;12.00;1.42;;;4.80;99.90;;;;;;12942140;22;20023;-93
2021/01/12 14:03:44;;;;;;;7.13;1.63;;;4.90;99.90;;;;;;12916585;22;20030;-94
2021/01/12 14:08:45;;;;;;;10.95;1.67;;;4.90;99.90;;;;;;12940543;22;20337;-94
2021/01/12 14:13:47;;;;;;;4.32;1.50;;;5.00;99.90;;;;;;12891013;22;20036;-93
2021/01/12 14:19:00;;;;;;;;;;;4.90;99.90;;;;;;12892502;22;20023;-92
2021/01/12 14:24:02;;;;;;;5.53;1.92;;;4.80;99.90;;;;;;12940738;22;19915;-93
2021/01/12 14:29:04;;;;;;;8.20;1.77;;;4.70;99.90;;;;;;12917397;22;20348;-92
2021/01/12 14:34:10;;;;;;;3.95;1.80;;;4.60;99.90;;;;;;12897155;22;20024;-92
2021/01/12 14:39:53;;;;;;;4.03;1.75;;;4.70;99.90;;;;;;12894441;22;20027;-92
2021/01/12 14:45:06;;;;;;;4.90;1.48;;;4.80;99.90;;;;;;12941675;22;20051;-93
2021/01/12 14:50:08;;;;;;;8.00;2.60;;;4.90;99.90;;;;;;12915350;22;20026;-93
2021/01/12 14:55:11;;;;;;;9.80;1.55;;;4.90;99.90;;;;;;12940270;22;20019;-92
2021/01/12 15:00:19;;;;;;;5.65;1.27;;;5.00;99.90;;;;;;12915614;22;20020;-91
2021/01/12 15:05:21;;;;;;;12.75;1.58;;;5.00;99.90;;;;;;12877962;23;20039;-94
2021/01/12 15:10:22;;;;;;;;;;;4.80;99.90;;;;;;12852517;23;20078;-93
2021/01/12 15:15:23;;;;;;;16.17;2.63;;;4.80;99.90;;;;;;12876360;23;20312;-92
2021/01/12 15:20:25;;;;;;;10.30;2.10;;;4.70;99.90;;;;;;12852228;23;20031;-93
2021/01/12 15:25:27;;;;;;;8.52;1.90;;;4.50;99.90;;;;;;12827637;23;20024;-92
2021/01/12 15:30:29;;;;;;;5.63;1.48;;;4.40;99.90;;;;;;12852348;23;20078;-93
2021/01/12 15:35:41;;;;;;;16.00;1.90;;;4.40;99.90;;;;;;12882002;23;20020;-93
2021/01/12 15:40:43;;;;;;;10.15;3.78;;;4.50;99.90;;;;;;12849620;23;20490;-94
2021/01/12 15:45:45;;;;;;;10.25;2.05;;;4.60;99.90;;;;;;12823467;23;20475;-93
2021/01/12 15:50:47;;;;;;;7.38;1.92;;;4.50;99.90;;;;;;12875749;23;20016;-93
2021/01/12 15:55:49;;;;;;;7.22;1.75;;;4.20;99.90;;;;;;12876341;23;20024;-93
2021/01/12 16:00:54;;;;;;;6.18;1.23;;;4.10;99.90;;;;;;12831807;22;20031;-93
2021/01/12 16:05:58;;;;;;;6.10;1.58;;;4.10;99.90;;;;;;12939031;22;20034;-92
2021/01/12 16:11:13;;;;;;;10.70;1.80;;;4.00;99.90;;;;;;12914565;22;20075;-93
2021/01/12 16:16:15;;;;;;;5.05;1.30;;;3.80;99.90;;;;;;12963677;22;20020;-93
2021/01/12 16:21:18;;;;;;;5.50;1.60;;;3.70;99.90;;;;;;12963045;22;20023;-93
2021/01/12 16:26:20;;;;;;;13.35;1.85;;;3.70;99.90;;;;;;12960795;22;20024;-92
2021/01/12 16:31:23;;;;;;;11.50;5.00;;;3.60;99.90;;;;;;12914570;22;20026;-92
2021/01/12 16:36:27;;;;;;;11.75;3.65;;;3.60;99.90;;;;;;12965367;22;20027;-94
2021/01/12 16:47:58;;;;;;;9.55;2.50;;;3.50;99.90;;;;;;12858656;23;20016;-93
2021/01/12 16:53:02;;;;;;;8.35;2.47;;;3.60;99.90;;;;;;12988234;22;20035;-93
2021/01/12 16:58:08;;;;;;;11.65;2.55;;;3.40;99.90;;;;;;12938245;22;20043;-93
2021/01/12 17:03:10;;;;;;;8.35;2.75;;;3.40;99.90;;;;;;12974112;22;20335;-91
2021/01/12 17:08:14;;;;;;;10.27;2.33;;;3.30;99.90;;;;;;12971340;22;20016;-91
2021/01/12 17:13:16;;;;;;;13.77;3.80;;;3.30;99.90;;;;;;12980323;22;20015;-92
2021/01/12 17:18:20;;;;;;;11.88;3.25;;;3.30;99.90;;;;;;13030613;22;20038;-92
2021/01/12 17:23:29;;;;;;;5.97;2.50;;;3.20;99.90;;;;;;12980841;22;20073;-92
2021/01/12 17:28:35;;;;;;;7.60;2.88;;;3.30;99.90;;;;;;12980427;22;20050;-91
2021/01/12 17:33:39;;;;;;;9.13;3.20;;;3.20;99.90;;;;;;13006249;22;20019;-92
2021/01/12 17:38:46;;;;;;;10.90;3.30;;;3.00;99.90;;;;;;12978782;22;20019;-92
2021/01/12 17:43:48;;;;;;;8.20;2.40;;;2.90;99.90;;;;;;13003610;22;20019;-93
2021/01/12 17:48:49;;;;;;;8.77;2.88;;;2.90;99.90;;;;;;12978474;22;20063;-92
2021/01/12 17:53:55;;;;;;;7.63;2.63;;;2.90;99.90;;;;;;12954630;22;20348;-94
2021/01/12 17:58:58;;;;;;;8.77;2.40;;;2.80;99.90;;;;;;13004505;22;20073;-93
2021/01/12 18:04:00;;;;;;;10.85;2.72;;;2.80;99.90;;;;;;12980460;22;20336;-94
2021/01/12 18:09:02;;;;;;;9.48;2.83;;;2.60;99.90;;;;;;12956332;22;20043;-93
2021/01/12 18:14:06;;;;;;;7.00;2.45;;;2.70;99.90;;;;;;12955864;22;20015;-93
2021/01/12 18:19:08;;;;;;;14.02;8.10;;;2.70;99.90;;;;;;13004101;22;20074;-94
2021/01/12 18:24:11;;;;;;;;;;;2.70;99.90;;;;;;12953949;22;20460;-94
2021/01/12 18:29:13;;;;;;;17.75;3.90;;;2.60;99.90;;;;;;13003822;22;19914;-93
2021/01/12 18:34:17;;;;;;;7.40;3.05;;;2.70;99.90;;;;;;13004364;22;20039;-93
2021/01/12 18:39:20;;;;;;;9.70;3.92;;;2.60;99.90;;;;;;13004489;22;20019;-93
2021/01/12 18:44:28;;;;;;;10.45;4.13;;;2.50;99.90;;;;;;12979277;22;20035;-93
2021/01/12 18:49:30;;;;;;;7.45;3.38;;;2.50;99.90;;;;;;13004491;22;20463;-94
2021/01/12 18:54:36;;;;;;;9.18;4.05;;;2.40;99.90;;;;;;12953642;22;20043;-94
2021/01/12 18:59:38;;;;;;;8.10;1.98;;;2.40;99.90;;;;;;12978915;22;20019;-94
2021/01/12 19:04:40;;;;;;;9.27;3.92;;;2.40;99.90;;;;;;12977666;22;20090;-94
2021/01/12 19:09:42;;;;;;;7.78;2.70;;;2.40;99.90;;;;;;12978865;22;20030;-93
2021/01/12 19:14:46;;;;;;;10.85;3.78;;;2.40;99.90;;;;;;13002924;22;20025;-93
2021/01/12 19:19:49;;;;;;;8.35;3.08;;;2.40;99.90;;;;;;13029115;22;20045;-93
2021/01/12 19:24:53;;;;;;;7.30;2.17;;;2.30;99.90;;;;;;12977982;22;20046;-93
2021/01/12 19:29:56;;;;;;;7.35;2.33;;;2.40;99.90;;;;;;12978972;22;20024;-94
2021/01/12 19:34:59;;;;;;;;;;;2.30;99.90;;;;;;13002473;22;20046;-93
2021/01/12 19:40:01;;;;;;;9.48;3.00;;;2.10;99.90;;;;;;13002994;22;19915;-93
2021/01/12 19:45:04;;;;;;;10.27;2.70;;;2.00;99.90;;;;;;12977389;22;20039;-93
2021/01/12 19:50:06;;;;;;;10.10;1.92;;;1.80;99.90;;;;;;12977907;22;20021;-93
2021/01/12 19:55:15;;;;;;;10.20;2.63;;;1.90;99.90;;;;;;12980058;22;20020;-93
2021/01/12 20:00:21;;;;;;;8.02;2.25;;;1.90;99.90;;;;;;13001904;22;20515;-93
2021/01/12 20:05:23;;;;;;;13.50;3.28;;;2.00;99.90;;;;;;12954516;22;20030;-92
2021/01/12 20:10:26;;;;;;;10.40;2.78;;;2.00;99.90;;;;;;12977395;22;20074;-92
2021/01/12 20:15:27;;;;;;;8.05;2.22;;;2.00;99.90;;;;;;13001470;22;20094;-94
2021/01/12 20:20:31;;;;;;;13.60;2.75;;;2.10;99.90;;;;;;12979275;22;20090;-93
2021/01/12 20:25:50;;;;;;;10.75;3.17;;;2.00;99.90;;;;;;13002273;22;20024;-93
2021/01/12 20:31:01;;;;;;;12.15;3.00;;;2.10;99.90;;;;;;13028225;22;20019;-93
2021/01/12 20:36:03;;;;;;;16.35;3.33;;;1.90;99.90;;;;;;13002438;22;20026;-93
2021/01/12 20:41:09;;;;;;;8.93;2.97;;;2.00;99.90;;;;;;12979710;22;20057;-94
2021/01/12 20:46:11;;;;;;;11.27;4.75;;;2.00;99.90;;;;;;12978130;22;20023;-94
2021/01/12 20:51:17;;;;;;;16.90;3.83;;;2.30;99.90;;;;;;13006407;22;20073;-95
2021/01/12 20:56:19;;;;;;;10.13;3.10;;;2.20;99.90;;;;;;12982720;22;20019;-93
2021/01/12 21:01:21;;;;;;;6.05;3.45;;;2.10;99.90;;;;;;12957540;22;20027;-94
2021/01/12 21:06:23;;;;;;;;;;;2.00;99.90;;;;;;13006559;22;20019;-93
2021/01/12 21:11:39;;;;;;;19.17;3.97;;;2.10;99.90;;;;;;13030790;22;19921;-94
2021/01/12 21:16:42;;;;;;;10.52;3.75;;;2.00;99.90;;;;;;13007023;22;20045;-94
2021/01/12 21:21:44;;;;;;;9.23;2.75;;;1.90;99.90;;;;;;13006183;22;20023;-94
2021/01/12 21:26:46;;;;;;;14.90;3.72;;;2.20;99.90;;;;;;12980664;22;20031;-93
2021/01/12 21:31:47;;;;;;;11.43;3.53;;;2.20;99.90;;;;;;12979789;22;20054;-94
2021/01/12 21:36:49;;;;;;;9.95;3.15;;;2.40;99.90;;;;;;13007356;22;20023;-93
2021/01/12 21:41:56;;;;;;;15.82;4.75;;;2.60;99.90;;;;;;12955947;22;20023;-94
2021/01/12 21:46:57;;;;;;;15.77;6.05;;;2.40;99.90;;;;;;12979948;22;20039;-94
2021/01/12 21:52:03;;;;;;;15.88;3.80;;;2.30;99.90;;;;;;12955208;22;20078;-94
2021/01/12 21:57:18;;;;;;;11.75;3.38;;;2.20;99.90;;;;;;12967453;22;20019;-94
2021/01/12 22:02:20;;;;;;;7.65;2.70;;;2.10;99.90;;;;;;13004106;22;20094;-94
2021/01/12 22:07:21;;;;;;;;;;;2.30;99.90;;;;;;12955029;22;20456;-94
2021/01/12 22:12:35;;;;;;;16.15;3.53;;;2.20;99.90;;;;;;13004824;22;19977;-93
2021/01/12 22:17:42;;;;;;;11.35;3.50;;;2.00;99.90;;;;;;12979384;22;20031;-93
2021/01/12 22:22:54;;;;;;;10.52;3.72;;;1.90;99.90;;;;;;12979561;22;20024;-93
2021/01/12 22:27:56;;;;;;;12.10;3.92;;;1.90;99.90;;;;;;12979320;22;20042;-94
2021/01/12 22:32:58;;;;;;;12.80;3.15;;;1.90;99.90;;;;;;12978851;22;20043;-94
2021/01/12 22:37:59;;;;;;;9.40;3.50;;;1.90;99.90;;;;;;12953669;22;20447;-94
2021/01/12 22:43:01;;;;;;;18.63;6.82;;;2.00;99.90;;;;;;12979341;22;20019;-93
2021/01/12 22:48:05;;;;;;;;;;;1.80;99.90;;;;;;12979844;22;20019;-93
2021/01/12 22:53:06;;;;;;;7.55;3.78;;;1.70;99.90;;;;;;13004490;22;19915;-93
2021/01/12 22:58:08;;;;;;;15.32;4.20;;;1.60;99.90;;;;;;12978626;22;20089;-94
2021/01/12 23:03:12;;;;;;;23.35;4.70;;;1.50;99.90;;;;;;12915525;22;20389;-95
2021/01/12 23:08:14;;;;;;;9.50;3.20;;;1.70;99.90;;;;;;12912886;22;20117;-95
2021/01/12 23:13:15;;;;;;;;;;;1.50;99.90;;;;;;12889401;22;20019;-94
2021/01/12 23:18:18;;;;;;;9.93;3.47;;;1.60;99.90;;;;;;12939823;22;20303;-94
2021/01/12 23:23:21;;;;;;;9.80;2.90;;;1.70;99.90;;;;;;12915797;22;20020;-94
2021/01/12 23:28:23;;;;;;;10.50;3.60;;;1.50;99.90;;;;;;12940212;22;20020;-95
2021/01/12 23:33:24;;;;;;;8.65;3.78;;;1.60;99.90;;;;;;12939565;22;20026;-95
2021/01/12 23:38:26;;;;;;;;;;;1.40;99.90;;;;;;12890092;22;20019;-94
2021/01/12 23:43:27;;;;;;;12.25;4.22;;;1.40;99.90;;;;;;12989348;22;19915;-94
2021/01/12 23:48:34;;;;;;;14.18;4.18;;;1.30;99.90;;;;;;12918147;22;20039;-94
2021/01/12 23:53:36;;;;;;;9.18;3.78;;;1.40;99.90;;;;;;12914435;22;20051;-94
2021/01/12 23:58:37;;;;;;;;;;;1.20;99.90;;;;;;12940384;22;20026;-95
